<?xml version='1.0' encoding='UTF-8'?><gpx version="1.1" creator="JPX - https://github.com/jenetics/jpx" xmlns="http://www.topografix.com/GPX/1/1"><trk><trkseg><trkpt lat="43.54746673168252" lon="13.614549467603577"><ele>472.0</ele><time>2026-04-02T18:47:28Z</time></trkpt><trkpt lat="43.547443538695546" lon="13.61445389872998"><ele>472.00000000000006</ele><time>2026-04-02T18:48:31.998Z</time></trkpt><trkpt lat="43.547400358927234" lon="13.614301500857307"><ele>472.00000000000006</ele><time>2026-04-02T18:48:33.998Z</time></trkpt><trkpt lat="43.54744916031818" lon="13.614490403095708"><ele>472.0</ele><time>2026-04-02T18:48:34.998Z</time></trkpt><trkpt lat="43.547469723978494" lon="13.614581650922942"><ele>472.0</ele><time>2026-04-02T18:48:53.998Z</time></trkpt><trkpt lat="43.54749632271008" lon="13.614664051859824"><ele>472.0</ele><time>2026-04-02T18:52:39.998Z</time></trkpt><trkpt lat="43.54753454167962" lon="13.614739260303363"><ele>472.0</ele><time>2026-04-02T18:52:45.998Z</time></trkpt><trkpt lat="43.547571107151846" lon="13.614820018134674"><ele>472.0</ele><time>2026-04-02T18:52:53.998Z</time></trkpt><trkpt lat="43.547624391413734" lon="13.614889460775162"><ele>472.0</ele><time>2026-04-02T18:53:04.998Z</time></trkpt><trkpt lat="43.5476181223504" lon="13.614977361150473"><ele>472.0</ele><time>2026-04-02T18:53:11Z</time></trkpt><trkpt lat="43.54760016526259" lon="13.615075613406304"><ele>472.0</ele><time>2026-04-02T18:53:17Z</time></trkpt><trkpt lat="43.54758519578122" lon="13.615161536993602"><ele>472.0</ele><time>2026-04-02T18:53:25Z</time></trkpt><trkpt lat="43.547567234374725" lon="13.61525761209401"><ele>471.57142857142856</ele><time>2026-04-02T18:53:31Z</time></trkpt><trkpt lat="43.54752813682924" lon="13.615339108248214"><ele>471.14285714285717</ele><time>2026-04-02T18:53:36Z</time></trkpt><trkpt lat="43.54751038751651" lon="13.615427119281156"><ele>470.7142857142857</ele><time>2026-04-02T18:53:43Z</time></trkpt><trkpt lat="43.54750374730997" lon="13.615521526558654"><ele>470.2857142857143</ele><time>2026-04-02T18:54:10.999Z</time></trkpt><trkpt lat="43.54747981714302" lon="13.61561604587484"><ele>469.8571428571429</ele><time>2026-04-02T18:54:17.999Z</time></trkpt><trkpt lat="43.54747749710868" lon="13.615702997744643"><ele>469.42857142857144</ele><time>2026-04-02T18:54:21.999Z</time></trkpt><trkpt lat="43.54746440363275" lon="13.61578808806323"><ele>469.0</ele><time>2026-04-02T18:54:26.999Z</time></trkpt><trkpt lat="43.547446993197305" lon="13.615878336279902"><ele>469.0</ele><time>2026-04-02T18:54:31.999Z</time></trkpt><trkpt lat="43.547445013833794" lon="13.615969345167196"><ele>469.0</ele><time>2026-04-02T18:54:35.999Z</time></trkpt><trkpt lat="43.547462341673466" lon="13.616066777953748"><ele>469.0</ele><time>2026-04-02T18:54:40.998Z</time></trkpt><trkpt lat="43.547463566576006" lon="13.616165975172574"><ele>469.0</ele><time>2026-04-02T18:54:46.998Z</time></trkpt><trkpt lat="43.5474573729946" lon="13.616252937266527"><ele>469.0</ele><time>2026-04-02T18:54:51.998Z</time></trkpt><trkpt lat="43.547449211783174" lon="13.616339412689138"><ele>469.0</ele><time>2026-04-02T18:54:55.998Z</time></trkpt><trkpt lat="43.54745483949366" lon="13.616442055077325"><ele>469.0</ele><time>2026-04-02T18:55:01.998Z</time></trkpt><trkpt lat="43.547438719715984" lon="13.616528826615756"><ele>469.0</ele><time>2026-04-02T18:55:06.998Z</time></trkpt><trkpt lat="43.547409983324584" lon="13.616622629566908"><ele>469.0</ele><time>2026-04-02T18:55:18Z</time></trkpt><trkpt lat="43.54739097005112" lon="13.616739243889882"><ele>469.0</ele><time>2026-04-02T18:55:24Z</time></trkpt><trkpt lat="43.54739627613548" lon="13.616839695818596"><ele>469.0</ele><time>2026-04-02T18:55:29Z</time></trkpt><trkpt lat="43.54737638859195" lon="13.616925452979967"><ele>469.0</ele><time>2026-04-02T18:55:33Z</time></trkpt><trkpt lat="43.547367028625615" lon="13.617011523807774"><ele>469.0</ele><time>2026-04-02T18:55:38Z</time></trkpt><trkpt lat="43.54735658284689" lon="13.617097275157825"><ele>469.0</ele><time>2026-04-02T18:55:43Z</time></trkpt><trkpt lat="43.547343383260014" lon="13.61718463879233"><ele>467.33333333333337</ele><time>2026-04-02T18:55:48Z</time></trkpt><trkpt lat="43.54733460794893" lon="13.617286510589855"><ele>465.6666666666667</ele><time>2026-04-02T18:55:53.999Z</time></trkpt><trkpt lat="43.54731717532681" lon="13.617403560744922"><ele>464.0</ele><time>2026-04-02T18:56:04.999Z</time></trkpt><trkpt lat="43.54727653615603" lon="13.617490645654087"><ele>462.33333333333337</ele><time>2026-04-02T18:56:11.999Z</time></trkpt><trkpt lat="43.547303807969925" lon="13.617577814737418"><ele>460.6666666666667</ele><time>2026-04-02T18:56:18.999Z</time></trkpt><trkpt lat="43.547291858418376" lon="13.617672594722508"><ele>459.0</ele><time>2026-04-02T18:56:26.999Z</time></trkpt><trkpt lat="43.547300342932395" lon="13.617789858645319"><ele>457.57142857142856</ele><time>2026-04-02T18:56:31.999Z</time></trkpt><trkpt lat="43.547276396462664" lon="13.617873208447573"><ele>456.1428571428571</ele><time>2026-04-02T18:56:37.999Z</time></trkpt><trkpt lat="43.54727012682495" lon="13.617980816510341"><ele>454.71428571428567</ele><time>2026-04-02T18:56:43.998Z</time></trkpt><trkpt lat="43.547243161350764" lon="13.618072986862831"><ele>453.2857142857143</ele><time>2026-04-02T18:56:49.998Z</time></trkpt><trkpt lat="43.54721004152342" lon="13.618147779803873"><ele>451.8571428571428</ele><time>2026-04-02T18:56:52.998Z</time></trkpt><trkpt lat="43.547214681728185" lon="13.61823959231651"><ele>450.4285714285714</ele><time>2026-04-02T18:57:02.998Z</time></trkpt><trkpt lat="43.54721476251698" lon="13.61833262376489"><ele>449.0</ele><time>2026-04-02T18:57:08.998Z</time></trkpt><trkpt lat="43.54719947316036" lon="13.618427258213988"><ele>449.0</ele><time>2026-04-02T18:57:16.998Z</time></trkpt><trkpt lat="43.547209550582764" lon="13.618520925739617"><ele>448.99999999999994</ele><time>2026-04-02T18:57:25Z</time></trkpt><trkpt lat="43.547180990650475" lon="13.618600298832188"><ele>449.0</ele><time>2026-04-02T18:57:30Z</time></trkpt><trkpt lat="43.54717599125367" lon="13.618691328475366"><ele>449.0</ele><time>2026-04-02T18:57:36Z</time></trkpt><trkpt lat="43.54716907146347" lon="13.618781139039333"><ele>448.99999999999994</ele><time>2026-04-02T18:57:43Z</time></trkpt><trkpt lat="43.54714545159435" lon="13.618878397749631"><ele>449.0</ele><time>2026-04-02T18:57:49Z</time></trkpt><trkpt lat="43.547126709715684" lon="13.61896882813769"><ele>449.0</ele><time>2026-04-02T18:57:53.999Z</time></trkpt><trkpt lat="43.54709721424374" lon="13.619051806380176"><ele>447.4285714285714</ele><time>2026-04-02T18:58:00.999Z</time></trkpt><trkpt lat="43.547047603656935" lon="13.619144064957954"><ele>445.8571428571428</ele><time>2026-04-02T18:58:07.999Z</time></trkpt><trkpt lat="43.54700609264338" lon="13.619225050814537"><ele>444.2857142857143</ele><time>2026-04-02T18:58:13.999Z</time></trkpt><trkpt lat="43.54696193732105" lon="13.619294442151894"><ele>442.71428571428567</ele><time>2026-04-02T18:58:20.999Z</time></trkpt><trkpt lat="43.54690869731943" lon="13.619375239150793"><ele>441.1428571428571</ele><time>2026-04-02T18:58:27.999Z</time></trkpt><trkpt lat="43.546857783375756" lon="13.619432196013955"><ele>439.57142857142856</ele><time>2026-04-02T18:58:33.999Z</time></trkpt><trkpt lat="43.546807018610444" lon="13.619493215075137"><ele>438.0</ele><time>2026-04-02T18:58:40.999Z</time></trkpt><trkpt lat="43.54676111584379" lon="13.619558536633168"><ele>438.0</ele><time>2026-04-02T18:58:47.998Z</time></trkpt><trkpt lat="43.5467110526988" lon="13.619627943078878"><ele>438.0</ele><time>2026-04-02T18:58:52.998Z</time></trkpt><trkpt lat="43.54667326316734" lon="13.61969970974764"><ele>438.0</ele><time>2026-04-02T18:58:59.998Z</time></trkpt><trkpt lat="43.5466464772797" lon="13.619783974069758"><ele>438.0</ele><time>2026-04-02T18:59:06.998Z</time></trkpt><trkpt lat="43.54659908838068" lon="13.619852743407426"><ele>438.0</ele><time>2026-04-02T18:59:14.998Z</time></trkpt><trkpt lat="43.54655060546398" lon="13.619923892528753"><ele>438.0</ele><time>2026-04-02T18:59:21.998Z</time></trkpt><trkpt lat="43.54649009052762" lon="13.619979999073648"><ele>438.0</ele><time>2026-04-02T18:59:29Z</time></trkpt><trkpt lat="43.54643730150467" lon="13.620063519081304"><ele>438.0</ele><time>2026-04-02T18:59:36Z</time></trkpt><trkpt lat="43.5463569416893" lon="13.620140264195225"><ele>438.0</ele><time>2026-04-02T18:59:58Z</time></trkpt><trkpt lat="43.546289482974956" lon="13.620203024257066"><ele>438.0</ele><time>2026-04-02T19:00:07.999Z</time></trkpt><trkpt lat="43.54622921433802" lon="13.620246125925945"><ele>438.0</ele><time>2026-04-02T19:00:13.999Z</time></trkpt><trkpt lat="43.546165378786995" lon="13.62026492619106"><ele>438.0</ele><time>2026-04-02T19:00:18.999Z</time></trkpt><trkpt lat="43.54609951516033" lon="13.620243936463762"><ele>438.0</ele><time>2026-04-02T19:00:23.999Z</time></trkpt><trkpt lat="43.54603865578819" lon="13.620207838263596"><ele>438.0</ele><time>2026-04-02T19:00:30.999Z</time></trkpt><trkpt lat="43.54598664700498" lon="13.6202612695436"><ele>440.14285714285717</ele><time>2026-04-02T19:00:58.998Z</time></trkpt><trkpt lat="43.54592553008226" lon="13.620295082940185"><ele>442.2857142857142</ele><time>2026-04-02T19:01:11.998Z</time></trkpt><trkpt lat="43.545866681876575" lon="13.620327883238884"><ele>444.4285714285714</ele><time>2026-04-02T19:01:26.998Z</time></trkpt><trkpt lat="43.54583672412731" lon="13.620404465007782"><ele>446.57142857142856</ele><time>2026-04-02T19:01:58Z</time></trkpt><trkpt lat="43.54579963996043" lon="13.620495123405796"><ele>448.71428571428567</ele><time>2026-04-02T19:02:10Z</time></trkpt><trkpt lat="43.54572657285263" lon="13.620514689885374"><ele>450.8571428571428</ele><time>2026-04-02T19:02:37.999Z</time></trkpt><trkpt lat="43.54567865633427" lon="13.620573167824094"><ele>452.99999999999994</ele><time>2026-04-02T19:02:44.999Z</time></trkpt><trkpt lat="43.54560937952048" lon="13.620648934947702"><ele>449.14285714285705</ele><time>2026-04-02T19:03:00.999Z</time></trkpt><trkpt lat="43.54554049963864" lon="13.62065481918019"><ele>445.2857142857143</ele><time>2026-04-02T19:03:09.998Z</time></trkpt><trkpt lat="43.54550710452295" lon="13.620730540176497"><ele>441.4285714285714</ele><time>2026-04-02T19:03:21.998Z</time></trkpt><trkpt lat="43.54545449706199" lon="13.620804672761539"><ele>437.57142857142856</ele><time>2026-04-02T19:03:34.998Z</time></trkpt><trkpt lat="43.54538920260836" lon="13.620830793249022"><ele>433.71428571428567</ele><time>2026-04-02T19:03:50Z</time></trkpt><trkpt lat="43.54532980186362" lon="13.620868495349821"><ele>429.85714285714283</ele><time>2026-04-02T19:03:58Z</time></trkpt><trkpt lat="43.545259859270566" lon="13.62088894130751"><ele>426.0</ele><time>2026-04-02T19:04:09Z</time></trkpt><trkpt lat="43.54519684161131" lon="13.620926826396774"><ele>425.99999999999994</ele><time>2026-04-02T19:04:18.999Z</time></trkpt><trkpt lat="43.5451351901823" lon="13.620947511100951"><ele>426.0</ele><time>2026-04-02T19:04:26.999Z</time></trkpt><trkpt lat="43.54506385800054" lon="13.620992138598531"><ele>426.0</ele><time>2026-04-02T19:04:32.999Z</time></trkpt><trkpt lat="43.545016724060076" lon="13.621055872679234"><ele>426.0</ele><time>2026-04-02T19:04:39.999Z</time></trkpt><trkpt lat="43.544984479564576" lon="13.621132471296036"><ele>426.0</ele><time>2026-04-02T19:04:44.999Z</time></trkpt><trkpt lat="43.54495908716557" lon="13.621215760255708"><ele>425.99999999999994</ele><time>2026-04-02T19:04:49.999Z</time></trkpt><trkpt lat="43.544925132761314" lon="13.621292096698014"><ele>426.0</ele><time>2026-04-02T19:04:56.999Z</time></trkpt><trkpt lat="43.54489195797714" lon="13.621365981529888"><ele>422.8333333333333</ele><time>2026-04-02T19:05:05.999Z</time></trkpt><trkpt lat="43.54487519510117" lon="13.621490271702958"><ele>419.66666666666663</ele><time>2026-04-02T19:05:23.998Z</time></trkpt><trkpt lat="43.54484131089143" lon="13.621565962156248"><ele>416.5</ele><time>2026-04-02T19:05:43Z</time></trkpt><trkpt lat="43.54475737261499" lon="13.621619349224186"><ele>413.3333333333333</ele><time>2026-04-02T19:06:26.999Z</time></trkpt><trkpt lat="43.54468969521627" lon="13.621599385989123"><ele>410.16666666666663</ele><time>2026-04-02T19:06:33.999Z</time></trkpt><trkpt lat="43.54462557479759" lon="13.62159012392106"><ele>407.0</ele><time>2026-04-02T19:06:42.999Z</time></trkpt><trkpt lat="43.544557258179836" lon="13.62156375665803"><ele>407.00000000000006</ele><time>2026-04-02T19:06:49.999Z</time></trkpt><trkpt lat="43.54453407202057" lon="13.621646658782971"><ele>407.0</ele><time>2026-04-02T19:06:55.999Z</time></trkpt><trkpt lat="43.54455746504431" lon="13.621729187239028"><ele>407.0</ele><time>2026-04-02T19:07:02.999Z</time></trkpt><trkpt lat="43.54457348046839" lon="13.621813193192091"><ele>407.0</ele><time>2026-04-02T19:07:09.999Z</time></trkpt><trkpt lat="43.54459297488084" lon="13.621901529587927"><ele>407.0</ele><time>2026-04-02T19:07:17.998Z</time></trkpt><trkpt lat="43.54463133175774" lon="13.62198903090023"><ele>407.00000000000006</ele><time>2026-04-02T19:07:27.998Z</time></trkpt><trkpt lat="43.54467115400628" lon="13.622102169985032"><ele>407.0</ele><time>2026-04-02T19:07:51Z</time></trkpt><trkpt lat="43.54467507411477" lon="13.622192363878009"><ele>404.8333333333333</ele><time>2026-04-02T19:09:07.999Z</time></trkpt><trkpt lat="43.544629974328764" lon="13.62210753016673"><ele>402.66666666666663</ele><time>2026-04-02T19:12:16Z</time></trkpt><trkpt lat="43.5445541973138" lon="13.62215423138444"><ele>400.5</ele><time>2026-04-02T19:13:47.998Z</time></trkpt><trkpt lat="43.544474017560766" lon="13.622152123672075"><ele>398.33333333333337</ele><time>2026-04-02T19:14:03.998Z</time></trkpt><trkpt lat="43.54440869460429" lon="13.622166876842531"><ele>396.1666666666667</ele><time>2026-04-02T19:14:24Z</time></trkpt><trkpt lat="43.544343794744705" lon="13.62219660325297"><ele>394.0</ele><time>2026-04-02T19:14:32Z</time></trkpt><trkpt lat="43.54426073099028" lon="13.622186911268024"><ele>394.0</ele><time>2026-04-02T19:14:55.999Z</time></trkpt><trkpt lat="43.544199287814585" lon="13.6221576250074"><ele>394.0</ele><time>2026-04-02T19:15:07.999Z</time></trkpt><trkpt lat="43.544135566267336" lon="13.622128232052905"><ele>394.0</ele><time>2026-04-02T19:15:18.999Z</time></trkpt><trkpt lat="43.54408655290128" lon="13.622071168413308"><ele>394.0</ele><time>2026-04-02T19:15:28.999Z</time></trkpt><trkpt lat="43.5440720898083" lon="13.622159299952147"><ele>394.0</ele><time>2026-04-02T19:15:39.998Z</time></trkpt><trkpt lat="43.54407240093877" lon="13.622271894991197"><ele>394.0</ele><time>2026-04-02T19:15:49.998Z</time></trkpt><trkpt lat="43.54408178278589" lon="13.622396690624072"><ele>394.0</ele><time>2026-04-02T19:16:01.998Z</time></trkpt><trkpt lat="43.54406623572977" lon="13.62248776302147"><ele>394.00000000000006</ele><time>2026-04-02T19:16:11.998Z</time></trkpt><trkpt lat="43.544075067416756" lon="13.622612451537208"><ele>394.0</ele><time>2026-04-02T19:16:23Z</time></trkpt><trkpt lat="43.54405194352949" lon="13.622719360267915"><ele>394.0</ele><time>2026-04-02T19:16:33Z</time></trkpt><trkpt lat="43.544048952498315" lon="13.622843323949516"><ele>394.0</ele><time>2026-04-02T19:16:43Z</time></trkpt><trkpt lat="43.54404390039383" lon="13.622932189125773"><ele>394.00000000000006</ele><time>2026-04-02T19:16:52.999Z</time></trkpt><trkpt lat="43.54397678130644" lon="13.622929681132728"><ele>394.0</ele><time>2026-04-02T19:17:06.999Z</time></trkpt><trkpt lat="43.54391342738293" lon="13.622918139279395"><ele>389.8571428571429</ele><time>2026-04-02T19:17:14.999Z</time></trkpt><trkpt lat="43.543877344249495" lon="13.62301394683327"><ele>385.7142857142857</ele><time>2026-04-02T19:17:24.999Z</time></trkpt><trkpt lat="43.543816321667386" lon="13.623035702965819"><ele>381.57142857142856</ele><time>2026-04-02T19:17:36.999Z</time></trkpt><trkpt lat="43.543755648759394" lon="13.622965659228454"><ele>377.42857142857144</ele><time>2026-04-02T19:23:06Z</time></trkpt><trkpt lat="43.543702254756916" lon="13.622919490066845"><ele>373.2857142857143</ele><time>2026-04-02T19:23:49.999Z</time></trkpt><trkpt lat="43.54362289509411" lon="13.622861638556913"><ele>369.14285714285717</ele><time>2026-04-02T19:24:06.998Z</time></trkpt><trkpt lat="43.543572260877326" lon="13.622804011539834"><ele>365.0</ele><time>2026-04-02T19:24:13.998Z</time></trkpt><trkpt lat="43.54350066559123" lon="13.622734022237468"><ele>365.00000000000006</ele><time>2026-04-02T19:24:24.998Z</time></trkpt><trkpt lat="43.54344991838756" lon="13.622656520435264"><ele>365.0</ele><time>2026-04-02T19:24:33.998Z</time></trkpt><trkpt lat="43.54340066138058" lon="13.622593299082872"><ele>365.0</ele><time>2026-04-02T19:24:42Z</time></trkpt><trkpt lat="43.54334794263457" lon="13.62253405129379"><ele>365.0</ele><time>2026-04-02T19:24:50Z</time></trkpt><trkpt lat="43.543315318648816" lon="13.62245262627834"><ele>365.0</ele><time>2026-04-02T19:24:55Z</time></trkpt><trkpt lat="43.54326781768445" lon="13.622380711766786"><ele>365.00000000000006</ele><time>2026-04-02T19:25:03Z</time></trkpt><trkpt lat="43.543259164412575" lon="13.622288417194362"><ele>365.0</ele><time>2026-04-02T19:25:11Z</time></trkpt><trkpt lat="43.54322892055988" lon="13.62221157386193"><ele>365.00000000000006</ele><time>2026-04-02T19:25:26.999Z</time></trkpt><trkpt lat="43.54321223803455" lon="13.622123497135417"><ele>365.0</ele><time>2026-04-02T19:25:39.999Z</time></trkpt><trkpt lat="43.543162362798405" lon="13.622057248778757"><ele>365.0</ele><time>2026-04-02T19:26:11.998Z</time></trkpt><trkpt lat="43.54310951993412" lon="13.622130503618418"><ele>365.0</ele><time>2026-04-02T19:26:19.998Z</time></trkpt><trkpt lat="43.54308101589007" lon="13.622208229454124"><ele>365.0</ele><time>2026-04-02T19:26:33.998Z</time></trkpt><trkpt lat="43.54305871371944" lon="13.622296541318665"><ele>365.00000000000006</ele><time>2026-04-02T19:26:48Z</time></trkpt><trkpt lat="43.543030474340384" lon="13.622378809647868"><ele>365.0</ele><time>2026-04-02T19:27:01Z</time></trkpt><trkpt lat="43.54302967555085" lon="13.622465652796766"><ele>365.00000000000006</ele><time>2026-04-02T19:27:13Z</time></trkpt><trkpt lat="43.54304228435165" lon="13.622551883775605"><ele>365.0</ele><time>2026-04-02T19:27:21.999Z</time></trkpt><trkpt lat="43.54305584091677" lon="13.62263881438623"><ele>365.0</ele><time>2026-04-02T19:27:33.999Z</time></trkpt><trkpt lat="43.54306739866016" lon="13.622726332389448"><ele>365.0</ele><time>2026-04-02T19:27:41.999Z</time></trkpt><trkpt lat="43.54308094892285" lon="13.622811751367376"><ele>365.0</ele><time>2026-04-02T19:27:48.999Z</time></trkpt><trkpt lat="43.543086870696" lon="13.62289966376844"><ele>365.00000000000006</ele><time>2026-04-02T19:27:58.999Z</time></trkpt><trkpt lat="43.543031875884076" lon="13.6229673867016"><ele>365.0</ele><time>2026-04-02T19:28:11.998Z</time></trkpt><trkpt lat="43.54296497526566" lon="13.622994473675002"><ele>361.28571428571433</ele><time>2026-04-02T19:28:23.998Z</time></trkpt><trkpt lat="43.54291048414111" lon="13.623038471389858"><ele>357.57142857142856</ele><time>2026-04-02T19:28:34.998Z</time></trkpt><trkpt lat="43.54284526974624" lon="13.623080084420073"><ele>353.8571428571429</ele><time>2026-04-02T19:28:42.998Z</time></trkpt><trkpt lat="43.542764644362016" lon="13.623096228483213"><ele>350.14285714285717</ele><time>2026-04-02T19:28:53Z</time></trkpt><trkpt lat="43.54272015961869" lon="13.623164946934072"><ele>346.42857142857144</ele><time>2026-04-02T19:29:04Z</time></trkpt><trkpt lat="43.542675058323" lon="13.623227796322386"><ele>342.7142857142857</ele><time>2026-04-02T19:29:12Z</time></trkpt><trkpt lat="43.5426233638267" lon="13.623172062300752"><ele>339.0</ele><time>2026-04-02T19:29:21Z</time></trkpt><trkpt lat="43.54265422171576" lon="13.623081850552005"><ele>336.4285714285714</ele><time>2026-04-02T19:29:28.999Z</time></trkpt><trkpt lat="43.542665414136636" lon="13.622995593290295"><ele>333.8571428571429</ele><time>2026-04-02T19:29:34.999Z</time></trkpt><trkpt lat="43.542689238459225" lon="13.62291301169837"><ele>331.2857142857143</ele><time>2026-04-02T19:29:43.999Z</time></trkpt><trkpt lat="43.542741647048715" lon="13.622859633251723"><ele>328.71428571428567</ele><time>2026-04-02T19:29:51.999Z</time></trkpt><trkpt lat="43.54275077875928" lon="13.622772161281565"><ele>326.1428571428571</ele><time>2026-04-02T19:30:02.999Z</time></trkpt><trkpt lat="43.542719786523016" lon="13.622692575212472"><ele>323.57142857142856</ele><time>2026-04-02T19:30:13.999Z</time></trkpt><trkpt lat="43.5426631271444" lon="13.622633096953495"><ele>321.0</ele><time>2026-04-02T19:30:27.998Z</time></trkpt><trkpt lat="43.542621983087294" lon="13.622561349915841"><ele>320.99999999999994</ele><time>2026-04-02T19:30:36.998Z</time></trkpt><trkpt lat="43.54258811764834" lon="13.62248600295094"><ele>321.0</ele><time>2026-04-02T19:30:43.998Z</time></trkpt><trkpt lat="43.54255043540928" lon="13.622412798356292"><ele>321.0</ele><time>2026-04-02T19:30:56Z</time></trkpt><trkpt lat="43.542510375929524" lon="13.622333925910752"><ele>321.0</ele><time>2026-04-02T19:31:05Z</time></trkpt><trkpt lat="43.542475204180604" lon="13.622260949414768"><ele>321.0</ele><time>2026-04-02T19:31:13Z</time></trkpt><trkpt lat="43.542460667365894" lon="13.62215974091613"><ele>320.99999999999994</ele><time>2026-04-02T19:31:28Z</time></trkpt><trkpt lat="43.54243217164088" lon="13.622065642882392"><ele>321.0</ele><time>2026-04-02T19:31:34.999Z</time></trkpt><trkpt lat="43.5424293010515" lon="13.621975712410046"><ele>320.4285714285714</ele><time>2026-04-02T19:31:40.999Z</time></trkpt><trkpt lat="43.5424437531835" lon="13.621888710808056"><ele>319.85714285714283</ele><time>2026-04-02T19:31:46.999Z</time></trkpt><trkpt lat="43.54248316489144" lon="13.621813098498071"><ele>319.2857142857143</ele><time>2026-04-02T19:31:51.999Z</time></trkpt><trkpt lat="43.542514821244765" lon="13.621736746447759"><ele>318.71428571428567</ele><time>2026-04-02T19:32:01.999Z</time></trkpt><trkpt lat="43.54256455888915" lon="13.62167251791362"><ele>318.1428571428571</ele><time>2026-04-02T19:32:15.999Z</time></trkpt><trkpt lat="43.542595951100715" lon="13.62157825389588"><ele>317.57142857142856</ele><time>2026-04-02T19:32:25.998Z</time></trkpt><trkpt lat="43.5426309561552" lon="13.621494207107194"><ele>317.0</ele><time>2026-04-02T19:32:32.998Z</time></trkpt><trkpt lat="43.542652885012046" lon="13.621410010857135"><ele>317.0</ele><time>2026-04-02T19:32:38.998Z</time></trkpt><trkpt lat="43.542684312232815" lon="13.621324629312468"><ele>317.0</ele><time>2026-04-02T19:32:46.998Z</time></trkpt><trkpt lat="43.542708237705256" lon="13.621228265410357"><ele>317.0</ele><time>2026-04-02T19:32:55.998Z</time></trkpt><trkpt lat="43.54269372673112" lon="13.62112520415574"><ele>317.0</ele><time>2026-04-02T19:33:09Z</time></trkpt><trkpt lat="43.54270681566581" lon="13.621036012804264"><ele>317.0</ele><time>2026-04-02T19:33:18Z</time></trkpt><trkpt lat="43.54265380124345" lon="13.6209853787472"><ele>317.0</ele><time>2026-04-02T19:33:31Z</time></trkpt><trkpt lat="43.54260803573499" lon="13.620918482855714"><ele>317.0</ele><time>2026-04-02T19:33:43.999Z</time></trkpt><trkpt lat="43.5425562409941" lon="13.620978335111447"><ele>317.0</ele><time>2026-04-02T19:33:58.999Z</time></trkpt><trkpt lat="43.54249994970076" lon="13.621017739244527"><ele>317.0</ele><time>2026-04-02T19:34:13.999Z</time></trkpt><trkpt lat="43.54246319868202" lon="13.621114806244698"><ele>317.0</ele><time>2026-04-02T19:34:30.998Z</time></trkpt><trkpt lat="43.54239744367916" lon="13.621149741298428"><ele>317.0</ele><time>2026-04-02T19:34:42.998Z</time></trkpt><trkpt lat="43.54233364358804" lon="13.621133681196495"><ele>317.0</ele><time>2026-04-02T19:34:52.998Z</time></trkpt><trkpt lat="43.54227108045483" lon="13.621161349470563"><ele>317.0</ele><time>2026-04-02T19:35:02.998Z</time></trkpt><trkpt lat="43.54220578040596" lon="13.621146822926848"><ele>317.0</ele><time>2026-04-02T19:35:11Z</time></trkpt><trkpt lat="43.542141460047105" lon="13.621173665416553"><ele>317.0</ele><time>2026-04-02T19:35:21Z</time></trkpt><trkpt lat="43.54207742488484" lon="13.621179137968529"><ele>317.0</ele><time>2026-04-02T19:35:31Z</time></trkpt><trkpt lat="43.54200719897286" lon="13.621204822599548"><ele>317.0</ele><time>2026-04-02T19:35:52.999Z</time></trkpt><trkpt lat="43.54194835349872" lon="13.621238815142103"><ele>317.0</ele><time>2026-04-02T19:36:07.999Z</time></trkpt><trkpt lat="43.54200109386474" lon="13.621302579434502"><ele>317.0</ele><time>2026-04-02T19:36:29.999Z</time></trkpt><trkpt lat="43.54195870510586" lon="13.621374921865039"><ele>317.0</ele><time>2026-04-02T19:36:38.998Z</time></trkpt><trkpt lat="43.54189442259751" lon="13.621391629436346"><ele>317.0</ele><time>2026-04-02T19:36:50.998Z</time></trkpt><trkpt lat="43.54184375466048" lon="13.621444424042329"><ele>311.42857142857144</ele><time>2026-04-02T19:37:03.998Z</time></trkpt><trkpt lat="43.54179632830552" lon="13.621503266491661"><ele>305.85714285714283</ele><time>2026-04-02T19:37:22Z</time></trkpt><trkpt lat="43.54171342725235" lon="13.621539464644716"><ele>300.2857142857143</ele><time>2026-04-02T19:37:40Z</time></trkpt><trkpt lat="43.541648378642925" lon="13.621544742431604"><ele>294.7142857142857</ele><time>2026-04-02T19:37:54.999Z</time></trkpt><trkpt lat="43.541597870338734" lon="13.621607813533721"><ele>289.14285714285717</ele><time>2026-04-02T19:38:08.999Z</time></trkpt><trkpt lat="43.541549597391295" lon="13.621674297786548"><ele>283.57142857142856</ele><time>2026-04-02T19:38:24.999Z</time></trkpt><trkpt lat="43.54147501974066" lon="13.621648608670593"><ele>278.0</ele><time>2026-04-02T19:38:34.999Z</time></trkpt><trkpt lat="43.54143322992165" lon="13.621732568228628"><ele>278.0</ele><time>2026-04-02T19:38:49.998Z</time></trkpt><trkpt lat="43.54142275027424" lon="13.621827214836678"><ele>278.0</ele><time>2026-04-02T19:39:07.998Z</time></trkpt><trkpt lat="43.54133839704424" lon="13.621872576592375"><ele>278.0</ele><time>2026-04-02T19:39:24Z</time></trkpt><trkpt lat="43.54127015490285" lon="13.621924796060151"><ele>278.0</ele><time>2026-04-02T19:39:38Z</time></trkpt><trkpt lat="43.54124492570892" lon="13.622008701537982"><ele>278.0</ele><time>2026-04-02T19:39:55Z</time></trkpt><trkpt lat="43.54120420339797" lon="13.622078837630122"><ele>278.0</ele><time>2026-04-02T19:40:00.999Z</time></trkpt><trkpt lat="43.54118814605793" lon="13.622190825740981"><ele>276.85714285714283</ele><time>2026-04-02T19:40:16.999Z</time></trkpt><trkpt lat="43.54123975796873" lon="13.622252834943945"><ele>275.7142857142857</ele><time>2026-04-02T19:40:23.999Z</time></trkpt><trkpt lat="43.541257367793285" lon="13.622341134007547"><ele>274.57142857142856</ele><time>2026-04-02T19:40:29.999Z</time></trkpt><trkpt lat="43.54126141364994" lon="13.622433876043466"><ele>273.42857142857144</ele><time>2026-04-02T19:40:34.999Z</time></trkpt><trkpt lat="43.54126066246938" lon="13.622530456031587"><ele>272.2857142857143</ele><time>2026-04-02T19:40:40.999Z</time></trkpt><trkpt lat="43.54129581613212" lon="13.622623003036846"><ele>271.1428571428571</ele><time>2026-04-02T19:40:48.998Z</time></trkpt><trkpt lat="43.541360335372765" lon="13.622641410475659"><ele>270.0</ele><time>2026-04-02T19:40:58.998Z</time></trkpt><trkpt lat="43.54142830171065" lon="13.622648475173644"><ele>270.0</ele><time>2026-04-02T19:41:03.998Z</time></trkpt><trkpt lat="43.54149764526545" lon="13.622661409930355"><ele>270.0</ele><time>2026-04-02T19:41:06.998Z</time></trkpt><trkpt lat="43.5414836133729" lon="13.622748043163886"><ele>270.0</ele><time>2026-04-02T19:41:10.998Z</time></trkpt><trkpt lat="43.541450760891244" lon="13.622830466754275"><ele>270.0</ele><time>2026-04-02T19:41:23.998Z</time></trkpt><trkpt lat="43.54141321749222" lon="13.622922932347368"><ele>270.0</ele><time>2026-04-02T19:41:38Z</time></trkpt><trkpt lat="43.54141985060923" lon="13.623010893810267"><ele>270.0</ele><time>2026-04-02T19:41:44Z</time></trkpt><trkpt lat="43.5414302242877" lon="13.623102058650177"><ele>270.0</ele><time>2026-04-02T19:41:52Z</time></trkpt><trkpt lat="43.54145062873439" lon="13.623186749282565"><ele>267.85714285714283</ele><time>2026-04-02T19:41:59Z</time></trkpt><trkpt lat="43.54146688887623" lon="13.623273510121988"><ele>265.71428571428567</ele><time>2026-04-02T19:42:04.999Z</time></trkpt><trkpt lat="43.541478238317076" lon="13.623358975467813"><ele>263.57142857142856</ele><time>2026-04-02T19:42:11.999Z</time></trkpt><trkpt lat="43.54149572760506" lon="13.623447403064548"><ele>261.42857142857144</ele><time>2026-04-02T19:42:18.999Z</time></trkpt><trkpt lat="43.54150119604101" lon="13.623540436172782"><ele>259.28571428571433</ele><time>2026-04-02T19:42:27.999Z</time></trkpt><trkpt lat="43.541508147327605" lon="13.623628856402641"><ele>257.14285714285717</ele><time>2026-04-02T19:42:33.999Z</time></trkpt><trkpt lat="43.54153544418655" lon="13.623710761059435"><ele>255.0</ele><time>2026-04-02T19:42:47.999Z</time></trkpt><trkpt lat="43.54155591247125" lon="13.623826853377386"><ele>251.71428571428572</ele><time>2026-04-02T19:43:48Z</time></trkpt><trkpt lat="43.541586275505885" lon="13.623903227160099"><ele>248.42857142857144</ele><time>2026-04-02T19:43:55Z</time></trkpt><trkpt lat="43.54164958140055" lon="13.62394377990896"><ele>245.14285714285717</ele><time>2026-04-02T19:44:03Z</time></trkpt><trkpt lat="43.541671864140504" lon="13.624056404115377"><ele>241.8571428571429</ele><time>2026-04-02T19:44:10.999Z</time></trkpt><trkpt lat="43.541703859578575" lon="13.624143028728374"><ele>238.57142857142858</ele><time>2026-04-02T19:44:16.999Z</time></trkpt><trkpt lat="43.54173927493195" lon="13.624222221474547"><ele>235.28571428571433</ele><time>2026-04-02T19:44:23.999Z</time></trkpt><trkpt lat="43.54180767852323" lon="13.624279116434902"><ele>232.00000000000003</ele><time>2026-04-02T19:44:34.999Z</time></trkpt><trkpt lat="43.54184675339862" lon="13.624351331698943"><ele>232.00000000000003</ele><time>2026-04-02T19:44:41.999Z</time></trkpt><trkpt lat="43.541865727921774" lon="13.624436282247078"><ele>232.0</ele><time>2026-04-02T19:44:48.999Z</time></trkpt><trkpt lat="43.541905773015706" lon="13.62451809815359"><ele>232.00000000000003</ele><time>2026-04-02T19:44:59.998Z</time></trkpt><trkpt lat="43.541936475672465" lon="13.62459893811185"><ele>232.00000000000003</ele><time>2026-04-02T19:45:10.998Z</time></trkpt><trkpt lat="43.541982159827235" lon="13.624669347837072"><ele>232.0</ele><time>2026-04-02T19:45:18.998Z</time></trkpt><trkpt lat="43.5420279942088" lon="13.624734796905017"><ele>232.00000000000003</ele><time>2026-04-02T19:45:26.998Z</time></trkpt><trkpt lat="43.542058481112925" lon="13.624811747463434"><ele>232.00000000000003</ele><time>2026-04-02T19:45:34.998Z</time></trkpt><trkpt lat="43.54211485209338" lon="13.624852844724984"><ele>231.28571428571433</ele><time>2026-04-02T19:45:41Z</time></trkpt><trkpt lat="43.54214785236079" lon="13.624926815641624"><ele>230.57142857142858</ele><time>2026-04-02T19:45:47Z</time></trkpt><trkpt lat="43.54220771528789" lon="13.624960402115152"><ele>229.8571428571429</ele><time>2026-04-02T19:45:55Z</time></trkpt><trkpt lat="43.54226588994754" lon="13.625018790136027"><ele>229.14285714285717</ele><time>2026-04-02T19:46:04Z</time></trkpt><trkpt lat="43.54232595996312" lon="13.62507505195214"><ele>228.42857142857144</ele><time>2026-04-02T19:46:12.999Z</time></trkpt><trkpt lat="43.5423041490718" lon="13.62515967600799"><ele>227.71428571428572</ele><time>2026-04-02T19:46:18.999Z</time></trkpt><trkpt lat="43.54231408587133" lon="13.625247862910513"><ele>227.0</ele><time>2026-04-02T19:46:26.999Z</time></trkpt><trkpt lat="43.54232430591856" lon="13.625335578685007"><ele>219.0</ele><time>2026-04-02T19:46:34.999Z</time></trkpt><trkpt lat="43.54229663194992" lon="13.62542223622258"><ele>211.0</ele><time>2026-04-02T19:46:45.999Z</time></trkpt><trkpt lat="43.542339407036195" lon="13.625493254941949"><ele>203.0</ele><time>2026-04-02T19:47:01.999Z</time></trkpt><trkpt lat="43.542331793345966" lon="13.625579838110477"><ele>195.0</ele><time>2026-04-02T19:48:58.999Z</time></trkpt><trkpt lat="43.54232591894496" lon="13.625849308670503"><ele>187.0</ele><time>2026-04-02T19:52:12.999Z</time></trkpt><trkpt lat="43.54230688881834" lon="13.625996712957742"><ele>187.0</ele><time>2026-04-02T19:52:41.999Z</time></trkpt><trkpt lat="43.54229817380182" lon="13.626098962363747"><ele>187.0</ele><time>2026-04-02T19:52:54.999Z</time></trkpt><trkpt lat="43.54231647750013" lon="13.62600521351436"><ele>187.0</ele><time>2026-04-02T20:22:12.999Z</time></trkpt><trkpt lat="43.54229700236611" lon="13.625922104584687"><ele>187.0</ele><time>2026-04-02T20:22:22.999Z</time></trkpt><trkpt lat="43.54235212354247" lon="13.625856448963084"><ele>187.0</ele><time>2026-04-02T20:22:40.999Z</time></trkpt><trkpt lat="43.54232174382205" lon="13.625768731381227"><ele>187.0</ele><time>2026-04-02T20:23:01.998Z</time></trkpt><trkpt lat="43.54231460822334" lon="13.625681665919839"><ele>187.0</ele><time>2026-04-02T20:23:11.998Z</time></trkpt><trkpt lat="43.5423076439475" lon="13.625590448851709"><ele>187.0</ele><time>2026-04-02T20:23:21.998Z</time></trkpt><trkpt lat="43.54231227306167" lon="13.625494664512406"><ele>187.0</ele><time>2026-04-02T20:23:37Z</time></trkpt><trkpt lat="43.54227093749464" lon="13.625413132585248"><ele>187.0</ele><time>2026-04-02T20:23:45Z</time></trkpt><trkpt lat="43.54230606504272" lon="13.625293744083647"><ele>187.0</ele><time>2026-04-02T20:24:03.999Z</time></trkpt><trkpt lat="43.54229213846129" lon="13.625207242435813"><ele>187.0</ele><time>2026-04-02T20:24:15.999Z</time></trkpt><trkpt lat="43.54226464628325" lon="13.625105729551223"><ele>187.0</ele><time>2026-04-02T20:24:23.999Z</time></trkpt><trkpt lat="43.54224546123463" lon="13.625014231917886"><ele>187.0</ele><time>2026-04-02T20:24:30.999Z</time></trkpt><trkpt lat="43.54218307735646" lon="13.62497613790547"><ele>189.0</ele><time>2026-04-02T20:24:43.999Z</time></trkpt><trkpt lat="43.54213571313697" lon="13.624917144865059"><ele>191.0</ele><time>2026-04-02T20:24:56.998Z</time></trkpt><trkpt lat="43.54209936273937" lon="13.62483973586507"><ele>193.0</ele><time>2026-04-02T20:25:05.998Z</time></trkpt><trkpt lat="43.5420361129136" lon="13.624810817541597"><ele>195.0</ele><time>2026-04-02T20:25:13.998Z</time></trkpt><trkpt lat="43.541990419336756" lon="13.62470648487152"><ele>197.0</ele><time>2026-04-02T20:25:32Z</time></trkpt><trkpt lat="43.54193226795319" lon="13.624644469646391"><ele>199.0</ele><time>2026-04-02T20:25:44Z</time></trkpt><trkpt lat="43.541887913496595" lon="13.62457195906807"><ele>201.0</ele><time>2026-04-02T20:25:53Z</time></trkpt><trkpt lat="43.54186499137822" lon="13.624479815927991"><ele>205.42857142857142</ele><time>2026-04-02T20:26:06Z</time></trkpt><trkpt lat="43.54184682909822" lon="13.624387522722174"><ele>209.8571428571429</ele><time>2026-04-02T20:26:17.999Z</time></trkpt><trkpt lat="43.54182645163426" lon="13.624301302429563"><ele>214.2857142857143</ele><time>2026-04-02T20:26:27.999Z</time></trkpt><trkpt lat="43.54176610351246" lon="13.624219411448978"><ele>218.71428571428572</ele><time>2026-04-02T20:26:41.999Z</time></trkpt><trkpt lat="43.54168902914401" lon="13.624183458679223"><ele>223.14285714285717</ele><time>2026-04-02T20:26:49.999Z</time></trkpt><trkpt lat="43.54166563050968" lon="13.624095469677506"><ele>227.5714285714286</ele><time>2026-04-02T20:26:59.999Z</time></trkpt><trkpt lat="43.54161900605157" lon="13.624028709616574"><ele>232.00000000000003</ele><time>2026-04-02T20:27:05.998Z</time></trkpt><trkpt lat="43.54161009085372" lon="13.623939469157122"><ele>232.00000000000003</ele><time>2026-04-02T20:27:15.998Z</time></trkpt><trkpt lat="43.54158496629829" lon="13.623858091961"><ele>232.0</ele><time>2026-04-02T20:27:25.998Z</time></trkpt><trkpt lat="43.54152667816909" lon="13.623800971993733"><ele>232.00000000000003</ele><time>2026-04-02T20:27:36Z</time></trkpt><trkpt lat="43.54148482392972" lon="13.623708220689972"><ele>232.00000000000003</ele><time>2026-04-02T20:27:44Z</time></trkpt><trkpt lat="43.541477154508996" lon="13.623617705764653"><ele>232.0</ele><time>2026-04-02T20:27:53Z</time></trkpt><trkpt lat="43.54145717566826" lon="13.623514581275925"><ele>232.00000000000003</ele><time>2026-04-02T20:28:07Z</time></trkpt><trkpt lat="43.54147413990148" lon="13.623430247627136"><ele>232.00000000000003</ele><time>2026-04-02T20:28:14.999Z</time></trkpt><trkpt lat="43.541537749478366" lon="13.623460839276877"><ele>235.83333333333331</ele><time>2026-04-02T20:28:19.999Z</time></trkpt><trkpt lat="43.54160216299488" lon="13.623391016636424"><ele>239.66666666666666</ele><time>2026-04-02T20:29:07.998Z</time></trkpt><trkpt lat="43.541579376894084" lon="13.623307844902445"><ele>243.5</ele><time>2026-04-02T20:29:22.998Z</time></trkpt><trkpt lat="43.54163785691993" lon="13.623275237941046"><ele>247.33333333333331</ele><time>2026-04-02T20:29:49Z</time></trkpt><trkpt lat="43.54173496014055" lon="13.623230142899935"><ele>251.16666666666666</ele><time>2026-04-02T20:30:19.999Z</time></trkpt><trkpt lat="43.54180560234439" lon="13.623195337287706"><ele>255.0</ele><time>2026-04-02T20:30:42.999Z</time></trkpt><trkpt lat="43.541782199549935" lon="13.623111659983131"><ele>255.0</ele><time>2026-04-02T20:31:10.998Z</time></trkpt><trkpt lat="43.54184591504843" lon="13.623154022151528"><ele>255.00000000000003</ele><time>2026-04-02T20:31:18.998Z</time></trkpt><trkpt lat="43.54189419363177" lon="13.623091760098296"><ele>255.0</ele><time>2026-04-02T20:32:05Z</time></trkpt><trkpt lat="43.54194936557486" lon="13.623198904170827"><ele>255.0</ele><time>2026-04-02T20:32:25Z</time></trkpt><trkpt lat="43.54195310875185" lon="13.623109302660962"><ele>255.00000000000003</ele><time>2026-04-02T20:32:27.999Z</time></trkpt><trkpt lat="43.54195317409413" lon="13.623020829733752"><ele>255.0</ele><time>2026-04-02T20:32:52.999Z</time></trkpt><trkpt lat="43.54199393272429" lon="13.622942513590178"><ele>255.0</ele><time>2026-04-02T20:33:17.998Z</time></trkpt><trkpt lat="43.54197923590209" lon="13.622846181995172"><ele>257.5</ele><time>2026-04-02T20:33:36.998Z</time></trkpt><trkpt lat="43.54197686234673" lon="13.62275449450044"><ele>260.0</ele><time>2026-04-02T20:33:46.998Z</time></trkpt><trkpt lat="43.542037968283104" lon="13.622618921630956"><ele>262.5</ele><time>2026-04-02T20:34:08Z</time></trkpt><trkpt lat="43.54205548786167" lon="13.622500738800978"><ele>265.0</ele><time>2026-04-02T20:34:30Z</time></trkpt><trkpt lat="43.542025661643756" lon="13.622418894184417"><ele>267.5</ele><time>2026-04-02T20:34:42.999Z</time></trkpt><trkpt lat="43.542021995910346" lon="13.622298642455554"><ele>270.0</ele><time>2026-04-02T20:34:54.999Z</time></trkpt><trkpt lat="43.54201068671184" lon="13.62220887029908"><ele>278.5</ele><time>2026-04-02T20:42:32Z</time></trkpt><trkpt lat="43.54205012416142" lon="13.622089640335352"><ele>287.0</ele><time>2026-04-02T20:42:58.999Z</time></trkpt><trkpt lat="43.54209607366339" lon="13.622152555169192"><ele>295.5</ele><time>2026-04-02T20:43:18.999Z</time></trkpt><trkpt lat="43.5421468528578" lon="13.62220674853811"><ele>304.0</ele><time>2026-04-02T20:43:57.998Z</time></trkpt><trkpt lat="43.54221938630708" lon="13.622178664871774"><ele>312.5</ele><time>2026-04-02T20:45:08.999Z</time></trkpt><trkpt lat="43.54232764845002" lon="13.622202697858306"><ele>321.0</ele><time>2026-04-02T20:46:18.998Z</time></trkpt><trkpt lat="43.5424050808701" lon="13.622246761021236"><ele>320.99999999999994</ele><time>2026-04-02T20:47:10.999Z</time></trkpt><trkpt lat="43.5424330814579" lon="13.622131448391398"><ele>321.0</ele><time>2026-04-02T20:47:32.999Z</time></trkpt><trkpt lat="43.54247426344648" lon="13.622206396855837"><ele>321.0</ele><time>2026-04-02T20:47:43.999Z</time></trkpt><trkpt lat="43.5425035869006" lon="13.622286724784288"><ele>321.0</ele><time>2026-04-02T20:47:51.999Z</time></trkpt><trkpt lat="43.5425343626807" lon="13.622376375615511"><ele>321.0</ele><time>2026-04-02T20:47:59.998Z</time></trkpt><trkpt lat="43.54257947988752" lon="13.622452874440821"><ele>320.99999999999994</ele><time>2026-04-02T20:48:10.998Z</time></trkpt><trkpt lat="43.54263043646045" lon="13.622526402445859"><ele>321.0</ele><time>2026-04-02T20:48:16.998Z</time></trkpt><trkpt lat="43.54267128605554" lon="13.622597845561687"><ele>320.99999999999994</ele><time>2026-04-02T20:48:25.998Z</time></trkpt><trkpt lat="43.54271604582303" lon="13.622660488532206"><ele>321.0</ele><time>2026-04-02T20:48:32.998Z</time></trkpt><trkpt lat="43.54276706351786" lon="13.622743553776598"><ele>321.0</ele><time>2026-04-02T20:48:42Z</time></trkpt><trkpt lat="43.54277704060962" lon="13.62283408771531"><ele>321.0</ele><time>2026-04-02T20:48:50Z</time></trkpt><trkpt lat="43.542758681046074" lon="13.622931029912289"><ele>321.0</ele><time>2026-04-02T20:49:00Z</time></trkpt><trkpt lat="43.542698553373036" lon="13.62297677922227"><ele>320.99999999999994</ele><time>2026-04-02T20:49:05Z</time></trkpt><trkpt lat="43.54267763105172" lon="13.623059924305188"><ele>321.0</ele><time>2026-04-02T20:49:14.999Z</time></trkpt><trkpt lat="43.54264236768273" lon="13.623142896383989"><ele>318.99999999999994</ele><time>2026-04-02T20:49:24.999Z</time></trkpt><trkpt lat="43.54270610334115" lon="13.623134840276503"><ele>317.0</ele><time>2026-04-02T20:49:42.999Z</time></trkpt><trkpt lat="43.542762456941844" lon="13.623092438995272"><ele>315.0</ele><time>2026-04-02T20:49:49.999Z</time></trkpt><trkpt lat="43.54282063642549" lon="13.623044925173746"><ele>313.0</ele><time>2026-04-02T20:49:57.999Z</time></trkpt><trkpt lat="43.54288501668805" lon="13.62302737636041"><ele>311.0</ele><time>2026-04-02T20:50:06.998Z</time></trkpt><trkpt lat="43.542937604203665" lon="13.622976230947298"><ele>308.99999999999994</ele><time>2026-04-02T20:50:14.998Z</time></trkpt><trkpt lat="43.542997179807834" lon="13.622928685763544"><ele>307.0</ele><time>2026-04-02T20:50:25.998Z</time></trkpt><trkpt lat="43.54304959024556" lon="13.622866338026"><ele>315.2857142857143</ele><time>2026-04-02T20:50:36.998Z</time></trkpt><trkpt lat="43.543089236282825" lon="13.62278944295863"><ele>323.57142857142856</ele><time>2026-04-02T20:50:54Z</time></trkpt><trkpt lat="43.543055111716505" lon="13.62271003651488"><ele>331.8571428571429</ele><time>2026-04-02T20:51:13Z</time></trkpt><trkpt lat="43.54305387531121" lon="13.62260114471068"><ele>340.1428571428571</ele><time>2026-04-02T20:51:23.999Z</time></trkpt><trkpt lat="43.54301527560163" lon="13.622513038734358"><ele>348.42857142857144</ele><time>2026-04-02T20:51:36.999Z</time></trkpt><trkpt lat="43.543009973244104" lon="13.622424507009748"><ele>356.7142857142857</ele><time>2026-04-02T20:51:55.999Z</time></trkpt><trkpt lat="43.54302393102754" lon="13.622334235705317"><ele>365.0</ele><time>2026-04-02T20:52:15.998Z</time></trkpt><trkpt lat="43.54305375476082" lon="13.622225016024363"><ele>365.00000000000006</ele><time>2026-04-02T20:52:34.998Z</time></trkpt><trkpt lat="43.54308728915465" lon="13.62214053123965"><ele>365.0</ele><time>2026-04-02T20:52:49Z</time></trkpt><trkpt lat="43.54312987482342" lon="13.622071639486053"><ele>365.0</ele><time>2026-04-02T20:53:00Z</time></trkpt><trkpt lat="43.543193040138995" lon="13.62200863859554"><ele>365.0</ele><time>2026-04-02T20:53:14Z</time></trkpt><trkpt lat="43.543239497708385" lon="13.622070587081545"><ele>365.0</ele><time>2026-04-02T20:53:27.999Z</time></trkpt><trkpt lat="43.5432461938015" lon="13.622166274471926"><ele>365.00000000000006</ele><time>2026-04-02T20:53:40.999Z</time></trkpt><trkpt lat="43.54326216372405" lon="13.622252177941677"><ele>365.0</ele><time>2026-04-02T20:53:51.999Z</time></trkpt><trkpt lat="43.543292072199215" lon="13.622340412920948"><ele>365.00000000000006</ele><time>2026-04-02T20:54:02.999Z</time></trkpt><trkpt lat="43.54332747911018" lon="13.622412868963172"><ele>365.0</ele><time>2026-04-02T20:54:10.999Z</time></trkpt><trkpt lat="43.54335937580712" lon="13.622510873338133"><ele>365.0</ele><time>2026-04-02T20:54:19.998Z</time></trkpt><trkpt lat="43.54341152192014" lon="13.622566325211515"><ele>365.0</ele><time>2026-04-02T20:54:27.998Z</time></trkpt><trkpt lat="43.543472988011416" lon="13.622610775720666"><ele>365.0</ele><time>2026-04-02T20:54:36.998Z</time></trkpt><trkpt lat="43.543523220200186" lon="13.622680002394016"><ele>365.00000000000006</ele><time>2026-04-02T20:54:45.998Z</time></trkpt><trkpt lat="43.54356974791037" lon="13.622753863859451"><ele>365.0</ele><time>2026-04-02T20:54:57Z</time></trkpt><trkpt lat="43.54361986124737" lon="13.622814709102036"><ele>361.5714285714286</ele><time>2026-04-02T20:55:08Z</time></trkpt><trkpt lat="43.54366785195123" lon="13.622873155564678"><ele>358.14285714285717</ele><time>2026-04-02T20:55:22Z</time></trkpt><trkpt lat="43.54374187759062" lon="13.622925754951478"><ele>354.7142857142857</ele><time>2026-04-02T20:56:21.998Z</time></trkpt><trkpt lat="43.54376602384677" lon="13.623009753715264"><ele>351.28571428571433</ele><time>2026-04-02T20:56:39.998Z</time></trkpt><trkpt lat="43.54385115942428" lon="13.622993585213248"><ele>347.8571428571429</ele><time>2026-04-02T21:04:42.999Z</time></trkpt><trkpt lat="43.54389271921745" lon="13.622915853971767"><ele>344.42857142857144</ele><time>2026-04-02T21:04:58.998Z</time></trkpt><trkpt lat="43.54395728242063" lon="13.622906374498186"><ele>341.0</ele><time>2026-04-02T21:05:09.998Z</time></trkpt><trkpt lat="43.54401810130749" lon="13.622932218097285"><ele>341.0</ele><time>2026-04-02T21:05:24Z</time></trkpt><trkpt lat="43.544033552118975" lon="13.622840533290173"><ele>341.0</ele><time>2026-04-02T21:05:38Z</time></trkpt><trkpt lat="43.54403505743223" lon="13.62275334100754"><ele>341.0</ele><time>2026-04-02T21:05:45Z</time></trkpt><trkpt lat="43.54405150454253" lon="13.622668909377179"><ele>341.0</ele><time>2026-04-02T21:05:54Z</time></trkpt><trkpt lat="43.54406383203589" lon="13.622573899909439"><ele>341.0</ele><time>2026-04-02T21:06:07.999Z</time></trkpt><trkpt lat="43.544060582483425" lon="13.622486626346342"><ele>341.0</ele><time>2026-04-02T21:06:20.999Z</time></trkpt><trkpt lat="43.544071708289344" lon="13.622373162399429"><ele>341.0</ele><time>2026-04-02T21:06:37.999Z</time></trkpt><trkpt lat="43.544071486616204" lon="13.622278373880913"><ele>348.57142857142856</ele><time>2026-04-02T21:06:49.998Z</time></trkpt><trkpt lat="43.544059303705446" lon="13.622188643814686"><ele>356.14285714285717</ele><time>2026-04-02T21:07:00.998Z</time></trkpt><trkpt lat="43.544063001267695" lon="13.622101425705464"><ele>363.7142857142857</ele><time>2026-04-02T21:07:12.998Z</time></trkpt><trkpt lat="43.5441272208007" lon="13.622087506112251"><ele>371.2857142857143</ele><time>2026-04-02T21:07:22.998Z</time></trkpt><trkpt lat="43.544179387935934" lon="13.622141038501768"><ele>378.8571428571429</ele><time>2026-04-02T21:07:37Z</time></trkpt><trkpt lat="43.54425915682523" lon="13.622124325557404"><ele>386.42857142857144</ele><time>2026-04-02T21:07:52Z</time></trkpt><trkpt lat="43.54432287841303" lon="13.622168783530505"><ele>394.0</ele><time>2026-04-02T21:08:05Z</time></trkpt><trkpt lat="43.54439895455904" lon="13.62217703732716"><ele>394.0</ele><time>2026-04-02T21:08:20.999Z</time></trkpt><trkpt lat="43.544469460299354" lon="13.622132243405213"><ele>394.0</ele><time>2026-04-02T21:08:36.999Z</time></trkpt><trkpt lat="43.5445347490407" lon="13.622118395135853"><ele>394.0</ele><time>2026-04-02T21:08:44.999Z</time></trkpt><trkpt lat="43.54459047712265" lon="13.622076123076729"><ele>394.0</ele><time>2026-04-02T21:09:01.998Z</time></trkpt><trkpt lat="43.54465424548156" lon="13.622077693446492"><ele>394.0</ele><time>2026-04-02T21:09:09.998Z</time></trkpt><trkpt lat="43.54462153782648" lon="13.622002964762313"><ele>394.0</ele><time>2026-04-02T21:09:27.998Z</time></trkpt><trkpt lat="43.54456248786893" lon="13.621902517738851"><ele>394.0</ele><time>2026-04-02T21:09:53Z</time></trkpt><trkpt lat="43.54454567190852" lon="13.6218181105356"><ele>394.7142857142857</ele><time>2026-04-02T21:10:03Z</time></trkpt><trkpt lat="43.54453026651315" lon="13.621729888089021"><ele>395.42857142857144</ele><time>2026-04-02T21:10:12Z</time></trkpt><trkpt lat="43.54453411372222" lon="13.621640673957726"><ele>396.1428571428571</ele><time>2026-04-02T21:10:20.999Z</time></trkpt><trkpt lat="43.54453589410443" lon="13.621550726893505"><ele>396.8571428571429</ele><time>2026-04-02T21:10:29.999Z</time></trkpt><trkpt lat="43.54460592312622" lon="13.621546447119796"><ele>397.57142857142856</ele><time>2026-04-02T21:10:42.999Z</time></trkpt><trkpt lat="43.544670867811284" lon="13.621575942425908"><ele>398.2857142857143</ele><time>2026-04-02T21:10:56.999Z</time></trkpt><trkpt lat="43.54472841389752" lon="13.621613211335976"><ele>399.0</ele><time>2026-04-02T21:11:11.998Z</time></trkpt><trkpt lat="43.5448216719566" lon="13.621550996358453"><ele>400.14285714285717</ele><time>2026-04-02T21:11:43Z</time></trkpt><trkpt lat="43.544855683523274" lon="13.621468084743551"><ele>401.2857142857143</ele><time>2026-04-02T21:11:56Z</time></trkpt><trkpt lat="43.54487387750433" lon="13.6213815149954"><ele>402.42857142857144</ele><time>2026-04-02T21:12:06Z</time></trkpt><trkpt lat="43.54490035956525" lon="13.621288829477255"><ele>403.57142857142856</ele><time>2026-04-02T21:12:17Z</time></trkpt><trkpt lat="43.544934682692336" lon="13.621203347336003"><ele>404.7142857142857</ele><time>2026-04-02T21:12:24.999Z</time></trkpt><trkpt lat="43.544966921628394" lon="13.621128158267359"><ele>405.8571428571429</ele><time>2026-04-02T21:12:32.999Z</time></trkpt><trkpt lat="43.54499332401889" lon="13.621044714204563"><ele>407.0</ele><time>2026-04-02T21:12:40.999Z</time></trkpt><trkpt lat="43.545041115504205" lon="13.620981456893224"><ele>409.28571428571433</ele><time>2026-04-02T21:12:49.999Z</time></trkpt><trkpt lat="43.54509850581254" lon="13.620914172880166"><ele>411.57142857142856</ele><time>2026-04-02T21:12:57.999Z</time></trkpt><trkpt lat="43.54516204726018" lon="13.620914609808384"><ele>413.8571428571429</ele><time>2026-04-02T21:13:03.999Z</time></trkpt><trkpt lat="43.54521764575977" lon="13.62086502542228"><ele>416.14285714285717</ele><time>2026-04-02T21:13:17.998Z</time></trkpt><trkpt lat="43.54528120920452" lon="13.62087302995168"><ele>418.42857142857144</ele><time>2026-04-02T21:13:25.998Z</time></trkpt><trkpt lat="43.54534306963467" lon="13.620827321178972"><ele>420.7142857142857</ele><time>2026-04-02T21:13:39.998Z</time></trkpt><trkpt lat="43.54540880403858" lon="13.620790804053849"><ele>423.0</ele><time>2026-04-02T21:13:54Z</time></trkpt><trkpt lat="43.54548021295213" lon="13.620766228300607"><ele>423.0</ele><time>2026-04-02T21:14:08Z</time></trkpt><trkpt lat="43.54549985212089" lon="13.62068136188742"><ele>423.0</ele><time>2026-04-02T21:14:20Z</time></trkpt><trkpt lat="43.54555964245849" lon="13.620638890618437"><ele>423.0</ele><time>2026-04-02T21:14:28.999Z</time></trkpt><trkpt lat="43.54561957450185" lon="13.620592686886708"><ele>423.0</ele><time>2026-04-02T21:14:39.999Z</time></trkpt><trkpt lat="43.54567035568804" lon="13.620538298271631"><ele>423.0</ele><time>2026-04-02T21:14:49.999Z</time></trkpt><trkpt lat="43.54572262975637" lon="13.620476689550442"><ele>423.0</ele><time>2026-04-02T21:15:07.999Z</time></trkpt><trkpt lat="43.54577897794675" lon="13.62042127077912"><ele>423.0</ele><time>2026-04-02T21:15:31.998Z</time></trkpt><trkpt lat="43.54583462684554" lon="13.620320800073442"><ele>425.1428571428571</ele><time>2026-04-02T21:15:54Z</time></trkpt><trkpt lat="43.54590337738595" lon="13.620277023450907"><ele>427.28571428571433</ele><time>2026-04-02T21:16:06Z</time></trkpt><trkpt lat="43.545975350462385" lon="13.620254295404603"><ele>429.42857142857144</ele><time>2026-04-02T21:16:19Z</time></trkpt><trkpt lat="43.54604555342594" lon="13.620221514218576"><ele>431.57142857142856</ele><time>2026-04-02T21:16:28Z</time></trkpt><trkpt lat="43.54611242552898" lon="13.620210987579492"><ele>433.71428571428567</ele><time>2026-04-02T21:16:40.999Z</time></trkpt><trkpt lat="43.54617812246617" lon="13.620215412134868"><ele>435.8571428571429</ele><time>2026-04-02T21:16:49.999Z</time></trkpt><trkpt lat="43.54624019655048" lon="13.620187791350396"><ele>438.0</ele><time>2026-04-02T21:16:55.999Z</time></trkpt><trkpt lat="43.546299390711575" lon="13.620156454660382"><ele>438.0</ele><time>2026-04-02T21:17:03.999Z</time></trkpt><trkpt lat="43.54635495154634" lon="13.620104691859797"><ele>438.0</ele><time>2026-04-02T21:17:14.999Z</time></trkpt><trkpt lat="43.54640492896483" lon="13.62003401350712"><ele>438.0</ele><time>2026-04-02T21:17:25.998Z</time></trkpt><trkpt lat="43.54646142101664" lon="13.61997237834359"><ele>438.0</ele><time>2026-04-02T21:17:31.998Z</time></trkpt><trkpt lat="43.54651789890164" lon="13.619915033322691"><ele>438.0</ele><time>2026-04-02T21:17:39.998Z</time></trkpt><trkpt lat="43.54656233491214" lon="13.619843791136603"><ele>438.0</ele><time>2026-04-02T21:17:47.998Z</time></trkpt><trkpt lat="43.54661210114488" lon="13.619774615166275"><ele>438.0</ele><time>2026-04-02T21:17:55.998Z</time></trkpt><trkpt lat="43.54664188682886" lon="13.619688227443778"><ele>438.0</ele><time>2026-04-02T21:18:06Z</time></trkpt><trkpt lat="43.54667015938883" lon="13.619601616832991"><ele>438.0</ele><time>2026-04-02T21:18:14Z</time></trkpt><trkpt lat="43.54672013119356" lon="13.619544783736155"><ele>438.0</ele><time>2026-04-02T21:18:19Z</time></trkpt><trkpt lat="43.546773330349055" lon="13.619438884792494"><ele>438.0</ele><time>2026-04-02T21:18:30.159Z</time></trkpt><trkpt lat="43.546833428594795" lon="13.619397981105017"><ele>438.0</ele><time>2026-04-02T21:18:39Z</time></trkpt><trkpt lat="43.54687655348661" lon="13.61932480709033"><ele>438.0</ele><time>2026-04-02T21:18:50Z</time></trkpt><trkpt lat="43.54693866338911" lon="13.619287004707026"><ele>438.0</ele><time>2026-04-02T21:18:58Z</time></trkpt><trkpt lat="43.5469830205197" lon="13.619210200336589"><ele>437.2857142857143</ele><time>2026-04-02T21:19:10Z</time></trkpt><trkpt lat="43.547011139149625" lon="13.619130727101354"><ele>436.57142857142856</ele><time>2026-04-02T21:19:19Z</time></trkpt><trkpt lat="43.54707062189963" lon="13.619095911107662"><ele>435.85714285714283</ele><time>2026-04-02T21:19:22Z</time></trkpt><trkpt lat="43.54710578481912" lon="13.619018547533319"><ele>435.1428571428571</ele><time>2026-04-02T21:19:31Z</time></trkpt><trkpt lat="43.5471221830654" lon="13.618911854063036"><ele>434.42857142857144</ele><time>2026-04-02T21:19:36.999Z</time></trkpt><trkpt lat="43.547165775063505" lon="13.618829464313315"><ele>433.71428571428567</ele><time>2026-04-02T21:19:46.999Z</time></trkpt><trkpt lat="43.54716713182683" lon="13.618740552696416"><ele>433.0</ele><time>2026-04-02T21:19:55.999Z</time></trkpt><trkpt lat="43.5471600519396" lon="13.618652017017567"><ele>435.2857142857142</ele><time>2026-04-02T21:20:03.999Z</time></trkpt><trkpt lat="43.547171379994104" lon="13.61856419120648"><ele>437.57142857142856</ele><time>2026-04-02T21:20:12.999Z</time></trkpt><trkpt lat="43.547182746830615" lon="13.618476228604358"><ele>439.85714285714283</ele><time>2026-04-02T21:20:19.999Z</time></trkpt><trkpt lat="43.547181105254175" lon="13.618388943513775"><ele>442.1428571428571</ele><time>2026-04-02T21:20:24.998Z</time></trkpt><trkpt lat="43.54718346512547" lon="13.618284234421694"><ele>444.4285714285714</ele><time>2026-04-02T21:20:33.998Z</time></trkpt><trkpt lat="43.547194414359424" lon="13.618197708343477"><ele>446.71428571428567</ele><time>2026-04-02T21:20:40.998Z</time></trkpt><trkpt lat="43.54721088457518" lon="13.618107415853656"><ele>449.0</ele><time>2026-04-02T21:20:48.998Z</time></trkpt><trkpt lat="43.54724480640016" lon="13.618029864830207"><ele>449.0</ele><time>2026-04-02T21:20:55.998Z</time></trkpt><trkpt lat="43.54724682854012" lon="13.617929199313378"><ele>448.99999999999994</ele><time>2026-04-02T21:21:05Z</time></trkpt><trkpt lat="43.547273235313305" lon="13.61783077577852"><ele>449.0</ele><time>2026-04-02T21:21:14Z</time></trkpt><trkpt lat="43.54728707149735" lon="13.617738972884894"><ele>449.0</ele><time>2026-04-02T21:21:21Z</time></trkpt><trkpt lat="43.547293691742794" lon="13.617643482713559"><ele>448.99999999999994</ele><time>2026-04-02T21:21:34Z</time></trkpt><trkpt lat="43.54728753435424" lon="13.617548127587876"><ele>449.0</ele><time>2026-04-02T21:21:44.999Z</time></trkpt><trkpt lat="43.54731675688367" lon="13.617448715630754"><ele>449.0</ele><time>2026-04-02T21:21:59.999Z</time></trkpt><trkpt lat="43.54727595871103" lon="13.6173651589167"><ele>450.4285714285714</ele><time>2026-04-02T21:22:06.999Z</time></trkpt><trkpt lat="43.54729585581628" lon="13.617274494835764"><ele>451.8571428571428</ele><time>2026-04-02T21:22:15.999Z</time></trkpt><trkpt lat="43.547321282066044" lon="13.617181592096323"><ele>453.2857142857143</ele><time>2026-04-02T21:22:22.999Z</time></trkpt><trkpt lat="43.54733843817434" lon="13.617093113714834"><ele>454.71428571428567</ele><time>2026-04-02T21:22:33.998Z</time></trkpt><trkpt lat="43.547354756980745" lon="13.616996135433636"><ele>456.1428571428571</ele><time>2026-04-02T21:22:41.998Z</time></trkpt><trkpt lat="43.54735836264711" lon="13.616892609446966"><ele>457.57142857142856</ele><time>2026-04-02T21:22:50.998Z</time></trkpt><trkpt lat="43.54738539214537" lon="13.616809985961297"><ele>459.0</ele><time>2026-04-02T21:22:59.998Z</time></trkpt><trkpt lat="43.547400578023456" lon="13.616720268153857"><ele>460.42857142857144</ele><time>2026-04-02T21:23:09Z</time></trkpt><trkpt lat="43.54742081663025" lon="13.616623207105222"><ele>461.85714285714283</ele><time>2026-04-02T21:23:16Z</time></trkpt><trkpt lat="43.547404912113485" lon="13.616532455452512"><ele>463.2857142857143</ele><time>2026-04-02T21:23:23Z</time></trkpt><trkpt lat="43.54741293578319" lon="13.616445062784956"><ele>464.7142857142857</ele><time>2026-04-02T21:23:31Z</time></trkpt><trkpt lat="43.54744201152466" lon="13.616365978022902"><ele>466.1428571428571</ele><time>2026-04-02T21:23:37Z</time></trkpt><trkpt lat="43.54746289673121" lon="13.616275860646201"><ele>467.57142857142856</ele><time>2026-04-02T21:23:41.999Z</time></trkpt><trkpt lat="43.54745693464485" lon="13.616186359922768"><ele>469.0</ele><time>2026-04-02T21:23:49.999Z</time></trkpt><trkpt lat="43.547451154089536" lon="13.616090609963114"><ele>469.0</ele><time>2026-04-02T21:23:56.999Z</time></trkpt><trkpt lat="43.547447318072386" lon="13.615993229998715"><ele>469.0</ele><time>2026-04-02T21:24:04.999Z</time></trkpt><trkpt lat="43.547414455804955" lon="13.615912548941145"><ele>469.0</ele><time>2026-04-02T21:24:12.999Z</time></trkpt><trkpt lat="43.54736280653751" lon="13.615847892456664"><ele>469.0</ele><time>2026-04-02T21:24:19.999Z</time></trkpt></trkseg></trk></gpx>